Aquadale, North Carolina
Current Conditions -  °F | °C
As of 9:15 AM on Thursday 27 Nov 2014 (Local Time) from KVUJ Reporting Station
Clear Clear  
Wind Chill: 39°   Ceiling: Unl
Heat Index: 43°   Visibility: 10mi
Dew Point: 38°   Wind: 7mph
Humidity: 82%   Direction: 280°W
Pressure: 30.07"   Gusts: NA
Location:  35.2152°N, 80.1663°W
Report Text: KVUJ 271415Z AUTO 28006KT 10SM CLR 06/03 A3007 RMK AO2 T00620033
Loading
Personal Weather Stations






























Interactive Weather Map New forecast layout! Learn more

10-Day Weather Forecast

Advertisements
Track Severe Weather on mobile